This is the latest recevied weather packets stored in our database for station/object IZ2OSD. If no packets are shown the sender has not sent any weather packets the latest 10 day(s).
| Time | Temp. | Humidity | Pressure | Rain* | Wind** | Luminosity | Snow |
|---|---|---|---|---|---|---|---|
| 1778071072 | 16.11° C | 85% | 1006.3 hPa | 0 mm | - | - | - |
| 1778066849 | 15.56° C | 86% | 1006.5 hPa | 0 mm | - | - | - |
| 1778062626 | 15° C | 90% | 1007 hPa | 0 mm | - | - | - |
| 1778052367 | 12.78° C | 98% | 1007.2 hPa | 0 mm | - | - | - |
| 1778051764 | 12.78° C | 99% | 1006.9 hPa | 0 mm | - | - | - |
| 1778051160 | 12.78° C | 99% | 1007.2 hPa | 0 mm | - | - | - |
| 1778049370 | 12.78° C | 99% | 1007.6 hPa | 0 mm | - | - | - |
| 1778048142 | 12.78° C | 99% | 1007.6 hPa | 0 mm | - | - | - |
| 1778028222 | 12.78° C | 99% | 1009.8 hPa | 0 mm | - | - | - |
| 1778027619 | 12.78° C | 99% | 1009.9 hPa | 0 mm | - | - | - |
| 1778025207 | 12.78° C | 99% | 1010.1 hPa | 0 mm | - | - | - |
| 1778023397 | 12.78° C | 99% | 1010.4 hPa | 0 mm | - | - | - |
| 1778022793 | 12.78° C | 99% | 1010.4 hPa | 0 mm | - | - | - |
| 1778020379 | 12.78° C | 99% | 1010.7 hPa | 0 mm | - | - | - |
| 1778017382 | 12.78° C | 99% | 1010.9 hPa | 0 mm | - | - | - |
| 1778012516 | 12.78° C | 98% | 1011.5 hPa | 0.25 mm | - | - | - |
| 1778011904 | 12.78° C | 98% | 1011.6 hPa | 0.25 mm | - | - | - |
| 1778010704 | 12.78° C | 98% | 1011.4 hPa | 0.25 mm | - | - | - |
| 1778007048 | 12.78° C | 99% | 1011.1 hPa | 0 mm | - | - | - |
| 1778003420 | 12.78° C | 99% | 1010.9 hPa | 0 mm | - | - | - |
| 1778002211 | 12.78° C | 99% | 1011.1 hPa | 0 mm | - | - | - |
| 1777997077 | 12.78° C | 98% | 1011.2 hPa | 0.25 mm | - | - | - |
| 1777992277 | 12.78° C | 97% | 1011.4 hPa | 0.25 mm | - | - | - |
| 1777988624 | 13.33° C | 94% | 1011.8 hPa | 0 mm | - | - | - |
| 1777973469 | 12.78° C | 92% | 1012.2 hPa | 0.25 mm | - | - | - |
* Rain latest hour (hover to see other rain measurements)
** Current wind speed in m/s (hover to see current wind gust speed)